Time;durP1;ratioP1;P1;durP2;ratioP2;P2;SDS_P1;SDS_P2;PMS_P1;PMS_P2;Temp;Humidity;BMP_temperature;BMP_pressure;BME280_temperature;BME280_humidity;BME280_pressure;Samples;Min_cycle;Max_cycle;Signal;HPM_P1;HPM_P2
2022/09/30 00:01:08;;;;;;;13.50;8.50;;;9.00;99.90;;;;;;5024880;28;20667;-85
2022/09/30 00:03:35;;;;;;;9.75;8.73;;;9.00;99.90;;;;;;5027644;28;20313;-85
2022/09/30 00:06:05;;;;;;;9.27;8.35;;;8.90;99.90;;;;;;5030752;28;20249;-85
2022/09/30 00:08:33;;;;;;;10.25;8.38;;;8.90;99.90;;;;;;5033333;28;20301;-85
2022/09/30 00:11:03;;;;;;;9.68;8.77;;;8.80;99.90;;;;;;5032623;28;20206;-85
2022/09/30 00:13:31;;;;;;;12.02;9.10;;;8.80;99.90;;;;;;5034331;28;20199;-85
2022/09/30 00:16:00;;;;;;;10.00;8.50;;;8.90;99.90;;;;;;5026716;28;20290;-85
2022/09/30 00:18:27;;;;;;;9.20;8.30;;;8.90;99.90;;;;;;5027519;28;20216;-85
2022/09/30 00:21:01;;;;;;;10.05;8.00;;;8.90;99.90;;;;;;5035949;28;20296;-84
2022/09/30 00:23:30;;;;;;;8.80;7.88;;;9.10;99.90;;;;;;5027814;28;20214;-85
2022/09/30 00:26:03;;;;;;;8.63;7.70;;;9.20;99.90;;;;;;5030497;28;20294;-85
2022/09/30 00:28:30;;;;;;;9.05;8.05;;;9.30;99.90;;;;;;5034379;28;20666;-85
2022/09/30 00:30:59;;;;;;;8.85;8.02;;;9.30;99.90;;;;;;5031901;28;20657;-85
2022/09/30 00:33:29;;;;;;;8.63;7.43;;;9.30;99.90;;;;;;5033470;28;20199;-84
2022/09/30 00:36:06;;;;;;;8.75;7.85;;;9.20;99.90;;;;;;5035070;28;20282;-84
2022/09/30 00:38:33;;;;;;;8.95;8.07;;;9.10;99.90;;;;;;5035512;28;20672;-85
2022/09/30 00:41:07;;;;;;;9.52;8.48;;;9.00;99.90;;;;;;5034885;28;20198;-85
2022/09/30 00:43:42;;;;;;;8.75;7.85;;;8.90;99.90;;;;;;5033842;28;20232;-85
2022/09/30 00:46:19;;;;;;;8.52;7.72;;;9.00;99.90;;;;;;5035500;28;20256;-85
2022/09/30 00:49:06;;;;;;;8.60;7.70;;;9.00;99.90;;;;;;5035732;28;20280;-84
2022/09/30 00:51:55;;;;;;;8.60;7.63;;;9.00;99.90;;;;;;5031157;28;20210;-85
2022/09/30 00:54:31;;;;;;;9.93;8.52;;;9.00;99.90;;;;;;5035746;28;20209;-85
2022/09/30 00:57:03;;;;;;;9.13;8.23;;;9.00;99.90;;;;;;5034494;28;20199;-85
2022/09/30 00:59:32;;;;;;;8.95;8.05;;;8.90;99.90;;;;;;5035033;28;20200;-84
2022/09/30 01:02:00;;;;;;;9.13;7.93;;;9.00;99.90;;;;;;5034667;28;20685;-85
2022/09/30 01:04:29;;;;;;;8.95;8.05;;;9.10;99.90;;;;;;5033193;28;20562;-85
2022/09/30 01:07:00;;;;;;;8.40;7.60;;;9.20;99.90;;;;;;5032973;28;20206;-85
2022/09/30 01:09:31;;;;;;;8.27;7.38;;;9.20;99.90;;;;;;5027806;28;20203;-85
2022/09/30 01:12:05;;;;;;;8.50;6.93;;;9.20;99.90;;;;;;5031866;28;20672;-85
2022/09/30 01:14:32;;;;;;;8.43;7.30;;;9.10;99.90;;;;;;5027040;28;20198;-85
2022/09/30 01:17:05;;;;;;;7.68;6.95;;;9.00;99.90;;;;;;5031449;28;20217;-85
2022/09/30 01:20:11;;;;;;;9.00;7.70;;;8.90;99.90;;;;;;5028210;28;20593;-85
2022/09/30 01:22:46;;;;;;;8.13;7.32;;;8.80;99.90;;;;;;4930473;29;20569;-85
2022/09/30 01:25:45;;;;;;;8.50;7.70;;;8.70;99.90;;;;;;4932582;29;20273;-85
2022/09/30 01:28:51;;;;;;;8.80;7.65;;;8.70;99.90;;;;;;4924270;29;20288;-85
2022/09/30 01:31:29;;;;;;;8.05;7.28;;;8.70;99.90;;;;;;4920761;29;20305;-84
2022/09/30 01:34:04;;;;;;;7.85;7.10;;;8.70;99.90;;;;;;4920711;29;20230;-84
2022/09/30 01:36:44;;;;;;;10.05;7.57;;;8.80;99.90;;;;;;4932602;29;20213;-85
2022/09/30 01:39:21;;;;;;;8.50;7.60;;;8.80;99.90;;;;;;4932894;29;20224;-85
2022/09/30 01:42:08;;;;;;;8.00;7.20;;;8.80;99.90;;;;;;4929249;29;20292;-85
2022/09/30 01:44:44;;;;;;;7.90;7.10;;;8.80;99.90;;;;;;4924795;29;20225;-84
2022/09/30 01:47:17;;;;;;;9.63;7.60;;;8.90;99.90;;;;;;4930002;29;20640;-85
2022/09/30 01:49:50;;;;;;;8.88;6.65;;;8.90;99.90;;;;;;4933506;29;20729;-85
2022/09/30 01:52:24;;;;;;;8.25;7.45;;;8.90;99.90;;;;;;4935336;29;20206;-85
2022/09/30 01:54:59;;;;;;;8.23;7.43;;;8.80;99.90;;;;;;4933954;29;20602;-85
2022/09/30 01:57:30;;;;;;;7.97;7.15;;;8.70;99.90;;;;;;4935846;29;20200;-85
2022/09/30 02:00:08;;;;;;;7.85;7.05;;;8.70;99.90;;;;;;5002187;28;20205;-84
2022/09/30 02:02:41;;;;;;;9.20;7.20;;;8.70;99.90;;;;;;5034380;28;20199;-85
2022/09/30 02:05:12;;;;;;;9.02;6.93;;;8.70;99.90;;;;;;5034318;28;20309;-85
2022/09/30 02:07:42;;;;;;;7.55;6.85;;;8.70;99.90;;;;;;5036703;28;20630;-85
2022/09/30 02:10:14;;;;;;;8.82;7.22;;;8.70;99.90;;;;;;5035625;28;20658;-85
2022/09/30 02:12:47;;;;;;;7.65;6.95;;;8.70;99.90;;;;;;5035991;28;20558;-84
2022/09/30 02:15:22;;;;;;;7.50;6.80;;;8.70;99.90;;;;;;5035861;28;20203;-85
2022/09/30 02:17:53;;;;;;;7.93;7.13;;;8.70;99.90;;;;;;5036632;28;20599;-85
2022/09/30 02:20:24;;;;;;;7.38;6.68;;;8.70;99.90;;;;;;5036208;28;20203;-84
2022/09/30 02:22:55;;;;;;;7.75;6.95;;;8.80;99.90;;;;;;5037319;28;20195;-84
2022/09/30 02:25:28;;;;;;;8.05;7.25;;;8.80;99.90;;;;;;5024814;28;20353;-85
2022/09/30 02:27:58;;;;;;;7.65;6.95;;;8.80;99.90;;;;;;5022366;28;20560;-85
2022/09/30 02:30:26;;;;;;;7.50;6.80;;;8.70;99.90;;;;;;5026958;28;20575;-85
2022/09/30 02:32:57;;;;;;;7.35;6.55;;;8.70;99.90;;;;;;5033996;28;20209;-84
2022/09/30 02:35:28;;;;;;;7.97;6.70;;;8.70;99.90;;;;;;5034406;28;20203;-85
2022/09/30 02:38:02;;;;;;;7.38;6.68;;;8.90;99.90;;;;;;5025143;28;20201;-85
2022/09/30 02:40:35;;;;;;;7.70;7.00;;;8.80;99.90;;;;;;5025827;28;20210;-85
2022/09/30 02:43:04;;;;;;;7.75;6.95;;;8.70;99.90;;;;;;5024955;28;20194;-86
2022/09/30 02:45:38;;;;;;;7.10;6.40;;;8.70;99.90;;;;;;5034598;28;20222;-85
2022/09/30 02:48:19;;;;;;;8.48;6.57;;;8.60;99.90;;;;;;5019254;28;20214;-85
2022/09/30 02:50:51;;;;;;;7.43;6.72;;;8.60;99.90;;;;;;5030272;28;20203;-85
2022/09/30 02:53:26;;;;;;;8.75;7.10;;;8.60;99.90;;;;;;5033347;28;20206;-85
2022/09/30 02:56:12;;;;;;;7.90;7.20;;;8.50;99.90;;;;;;5033775;28;20209;-85
2022/09/30 02:58:39;;;;;;;7.68;6.90;;;8.50;99.90;;;;;;5031573;28;20209;-85
2022/09/30 03:01:09;;;;;;;8.00;7.20;;;8.50;99.90;;;;;;5032764;28;20208;-85
2022/09/30 03:03:42;;;;;;;8.00;7.20;;;8.50;99.90;;;;;;5032205;28;20202;-85
2022/09/30 03:06:09;;;;;;;7.80;7.00;;;8.50;99.90;;;;;;5033149;28;20222;-85
2022/09/30 03:08:36;;;;;;;8.65;7.07;;;8.50;99.90;;;;;;5033373;28;20199;-85
2022/09/30 03:11:04;;;;;;;8.32;7.50;;;8.50;99.90;;;;;;5033566;28;20213;-85
2022/09/30 03:14:07;;;;;;;7.95;7.15;;;8.40;99.90;;;;;;5029580;28;20205;-85
2022/09/30 03:16:47;;;;;;;6.88;6.15;;;8.40;99.90;;;;;;4945634;28;20703;-85
2022/09/30 03:19:30;;;;;;;6.97;6.28;;;8.50;99.90;;;;;;4948631;28;20219;-85
2022/09/30 03:22:14;;;;;;;9.82;7.28;;;8.60;99.90;;;;;;4951306;28;20229;-85
2022/09/30 03:25:04;;;;;;;7.60;6.68;;;8.60;99.90;;;;;;4945931;28;20264;-85
2022/09/30 03:27:41;;;;;;;8.05;6.88;;;8.50;99.90;;;;;;4962384;28;20292;-84
2022/09/30 03:30:42;;;;;;;7.43;6.72;;;8.40;99.90;;;;;;4951614;28;20206;-84
2022/09/30 03:33:18;;;;;;;8.90;7.28;;;8.40;99.90;;;;;;4950660;28;20204;-85
2022/09/30 03:35:56;;;;;;;8.18;7.32;;;8.40;99.90;;;;;;4952401;28;20209;-85
2022/09/30 03:38:34;;;;;;;7.72;6.90;;;8.40;99.90;;;;;;4946144;28;20212;-85
2022/09/30 03:41:10;;;;;;;8.80;7.43;;;8.40;99.90;;;;;;4946310;28;20201;-85
2022/09/30 03:43:43;;;;;;;8.38;7.47;;;8.40;99.90;;;;;;4948268;28;20578;-84
2022/09/30 03:46:17;;;;;;;8.30;7.43;;;8.40;99.90;;;;;;4951828;28;20213;-85
2022/09/30 03:48:46;;;;;;;7.28;6.55;;;8.50;99.90;;;;;;4947126;28;20784;-85
2022/09/30 03:51:15;;;;;;;8.13;7.30;;;8.60;99.90;;;;;;4949811;28;20591;-85
2022/09/30 03:53:45;;;;;;;8.32;7.13;;;8.70;99.90;;;;;;5008085;28;20257;-85
2022/09/30 03:56:12;;;;;;;8.63;7.72;;;8.70;99.90;;;;;;5029914;28;20290;-85
2022/09/30 03:58:44;;;;;;;10.02;7.95;;;8.70;99.90;;;;;;5033031;28;20297;-85
2022/09/30 04:01:20;;;;;;;8.30;7.50;;;8.80;99.90;;;;;;5031652;28;20202;-85
2022/09/30 04:03:47;;;;;;;9.98;7.53;;;8.90;99.90;;;;;;5024018;28;20198;-85
2022/09/30 04:06:15;;;;;;;7.75;7.00;;;9.00;99.90;;;;;;5031143;28;20269;-85
2022/09/30 04:08:43;;;;;;;9.50;7.75;;;9.00;99.90;;;;;;5029630;28;20658;-85
2022/09/30 04:11:10;;;;;;;10.68;8.00;;;8.80;99.90;;;;;;5032751;28;20665;-85
2022/09/30 04:13:37;;;;;;;8.45;7.65;;;8.70;99.90;;;;;;5032200;28;20229;-85
2022/09/30 04:16:04;;;;;;;9.38;8.48;;;8.60;99.90;;;;;;5027680;28;20221;-85
2022/09/30 04:18:31;;;;;;;8.48;7.63;;;8.50;99.90;;;;;;5030393;28;20202;-85
2022/09/30 04:20:58;;;;;;;11.18;7.88;;;8.50;99.90;;;;;;5031486;28;20210;-85
2022/09/30 04:23:26;;;;;;;8.65;7.85;;;8.50;99.90;;;;;;5032890;28;20199;-85
2022/09/30 04:25:54;;;;;;;8.73;7.68;;;8.60;99.90;;;;;;5028082;28;20727;-84
2022/09/30 04:28:23;;;;;;;9.25;8.35;;;8.80;99.90;;;;;;5032512;28;20534;-85
2022/09/30 04:30:53;;;;;;;10.27;8.90;;;8.90;99.90;;;;;;5027346;28;20198;-85
2022/09/30 04:33:30;;;;;;;8.85;7.95;;;8.80;99.90;;;;;;5034115;28;20273;-85
2022/09/30 04:36:00;;;;;;;12.02;9.02;;;8.70;99.90;;;;;;5029200;28;20221;-85
2022/09/30 04:38:43;;;;;;;11.45;9.27;;;8.60;99.90;;;;;;5030276;28;20211;-85
2022/09/30 04:41:14;;;;;;;11.05;9.90;;;8.50;99.90;;;;;;5021574;28;20234;-85
2022/09/30 04:43:45;;;;;;;10.75;9.65;;;8.40;99.90;;;;;;5029615;28;20209;-85
2022/09/30 04:46:21;;;;;;;11.25;9.60;;;8.40;99.90;;;;;;5031319;28;20221;-84
2022/09/30 04:48:53;;;;;;;12.55;10.00;;;8.40;99.90;;;;;;5031261;28;20203;-84
2022/09/30 04:51:23;;;;;;;11.35;10.15;;;8.40;99.90;;;;;;5032759;28;20202;-84
2022/09/30 04:53:55;;;;;;;12.30;10.18;;;8.40;99.90;;;;;;5025947;28;20570;-84
2022/09/30 04:56:30;;;;;;;11.52;9.82;;;8.40;99.90;;;;;;5031084;28;20203;-85
2022/09/30 04:58:56;;;;;;;11.45;10.07;;;8.30;99.90;;;;;;5024107;28;20201;-85
2022/09/30 05:01:29;;;;;;;12.70;10.85;;;8.40;99.90;;;;;;5025991;28;20293;-83
2022/09/30 05:04:12;;;;;;;13.13;11.10;;;8.30;99.90;;;;;;5024343;28;20285;-84
2022/09/30 05:06:42;;;;;;;12.90;11.00;;;8.30;99.90;;;;;;5026168;28;20207;-84
2022/09/30 05:09:37;;;;;;;12.32;10.43;;;8.30;99.90;;;;;;5030518;28;20196;-86
2022/09/30 05:12:04;;;;;;;12.05;10.85;;;8.30;99.90;;;;;;5019410;28;20195;-85
2022/09/30 05:14:32;;;;;;;12.00;10.80;;;8.20;99.90;;;;;;5021331;28;20617;-84
2022/09/30 05:17:18;;;;;;;14.43;11.27;;;8.20;99.90;;;;;;5020786;28;20222;-83
2022/09/30 05:19:48;;;;;;;12.75;11.23;;;8.30;99.90;;;;;;5023089;28;20207;-84
2022/09/30 05:22:18;;;;;;;12.25;10.45;;;8.30;99.90;;;;;;5026388;28;20194;-84
2022/09/30 05:25:02;;;;;;;12.35;10.93;;;8.40;99.90;;;;;;5032396;28;20246;-84
2022/09/30 05:27:29;;;;;;;14.50;11.32;;;8.50;99.90;;;;;;5029833;28;20198;-84
2022/09/30 05:30:12;;;;;;;12.75;11.25;;;8.60;99.90;;;;;;5029548;28;20203;-85
2022/09/30 05:32:42;;;;;;;11.90;10.70;;;8.50;99.90;;;;;;5034761;28;20232;-86
2022/09/30 05:35:10;;;;;;;12.15;10.90;;;8.50;99.90;;;;;;5028051;28;20293;-86
2022/09/30 05:37:37;;;;;;;15.68;11.00;;;8.50;99.90;;;;;;5029336;28;20209;-86
2022/09/30 05:40:11;;;;;;;13.27;11.98;;;8.50;99.90;;;;;;5030853;28;20281;-86
2022/09/30 05:42:44;;;;;;;14.38;11.65;;;8.50;99.90;;;;;;5032708;28;20309;-86
2022/09/30 05:45:11;;;;;;;12.35;11.05;;;8.50;99.90;;;;;;5032194;28;20219;-86
2022/09/30 05:47:38;;;;;;;14.43;11.80;;;8.70;99.90;;;;;;5032839;28;20199;-86
2022/09/30 05:50:06;;;;;;;13.77;11.55;;;8.70;99.90;;;;;;5031242;28;20581;-86
2022/09/30 05:52:32;;;;;;;15.70;12.80;;;8.60;99.90;;;;;;5031004;28;20195;-86
2022/09/30 05:55:00;;;;;;;16.40;12.75;;;8.70;99.90;;;;;;5031389;28;20289;-86
2022/09/30 05:57:29;;;;;;;15.80;13.57;;;8.80;99.90;;;;;;5031343;28;20207;-86
2022/09/30 05:59:56;;;;;;;18.58;14.50;;;9.00;99.90;;;;;;5030242;28;20265;-85
2022/09/30 06:02:23;;;;;;;23.60;17.50;;;9.10;99.90;;;;;;5029617;28;20194;-86
2022/09/30 06:04:50;;;;;;;21.85;16.30;;;9.20;99.90;;;;;;5033079;28;20313;-86
2022/09/30 06:07:17;;;;;;;19.27;15.98;;;9.20;99.90;;;;;;5032016;28;20199;-85
2022/09/30 06:09:48;;;;;;;21.42;15.73;;;9.20;99.90;;;;;;5028915;28;20198;-85
2022/09/30 06:12:15;;;;;;;16.20;14.13;;;9.20;99.90;;;;;;5032704;28;20302;-84
2022/09/30 06:14:43;;;;;;;17.40;13.40;;;9.30;99.90;;;;;;5022183;28;20587;-84
2022/09/30 06:17:10;;;;;;;15.80;13.05;;;9.40;99.90;;;;;;5024996;28;20203;-85
2022/09/30 06:19:37;;;;;;;14.93;12.80;;;9.50;99.90;;;;;;5025221;28;20235;-85
2022/09/30 06:22:05;;;;;;;13.70;10.73;;;9.60;99.90;;;;;;5030348;28;20203;-85
2022/09/30 06:24:32;;;;;;;13.00;11.57;;;9.70;99.90;;;;;;5027666;28;20190;-85
2022/09/30 06:27:00;;;;;;;13.55;12.15;;;9.70;99.90;;;;;;5031209;28;20201;-84
2022/09/30 06:29:26;;;;;;;12.10;10.88;;;9.70;99.90;;;;;;5028440;28;20289;-85
2022/09/30 06:31:55;;;;;;;13.23;11.30;;;9.70;99.80;;;;;;5022873;28;20614;-85
2022/09/30 06:34:24;;;;;;;13.48;11.60;;;9.70;99.60;;;;;;5028587;28;20209;-85
2022/09/30 06:36:52;;;;;;;12.88;10.98;;;9.70;99.90;;;;;;5037541;28;20208;-85
2022/09/30 06:39:36;;;;;;;13.65;11.75;;;9.80;99.70;;;;;;5038117;28;20642;-85
2022/09/30 06:42:48;;;;;;;13.48;11.43;;;9.90;99.40;;;;;;5023817;28;20195;-87
2022/09/30 06:45:15;;;;;;;15.77;11.52;;;9.90;99.40;;;;;;5027757;28;20211;-86
2022/09/30 06:47:58;;;;;;;12.75;11.23;;;10.00;99.00;;;;;;5027260;28;20249;-85
2022/09/30 06:50:37;;;;;;;15.05;11.32;;;10.00;99.20;;;;;;5037130;28;20199;-85
2022/09/30 06:53:23;;;;;;;14.73;11.07;;;10.20;99.10;;;;;;5038882;28;20634;-85
2022/09/30 06:55:55;;;;;;;14.40;11.57;;;10.40;98.30;;;;;;5032669;28;20290;-84
2022/09/30 06:58:23;;;;;;;11.55;10.10;;;10.40;98.00;;;;;;5037324;28;20199;-85
2022/09/30 07:00:57;;;;;;;12.18;10.57;;;10.40;97.90;;;;;;5037885;28;20203;-83
2022/09/30 07:03:28;;;;;;;11.82;10.23;;;10.40;98.10;;;;;;5041620;28;20206;-84
2022/09/30 07:05:57;;;;;;;12.18;10.02;;;10.50;97.90;;;;;;5032595;28;20234;-85
2022/09/30 07:08:31;;;;;;;12.38;11.07;;;10.60;98.00;;;;;;5031139;28;20203;-84
2022/09/30 07:10:59;;;;;;;13.07;11.68;;;10.60;97.90;;;;;;5035932;28;20194;-85
2022/09/30 07:13:26;;;;;;;14.20;10.95;;;10.60;98.20;;;;;;5037219;28;20205;-86
2022/09/30 07:15:55;;;;;;;17.95;12.48;;;10.50;97.80;;;;;;5042080;28;20289;-85
2022/09/30 07:18:22;;;;;;;15.73;11.55;;;10.50;97.00;;;;;;5033806;28;20573;-85
2022/09/30 07:20:52;;;;;;;15.43;12.05;;;10.50;97.50;;;;;;5040141;28;20277;-85
2022/09/30 07:23:30;;;;;;;12.27;10.57;;;10.80;97.30;;;;;;5037306;28;20199;-85
2022/09/30 07:26:02;;;;;;;12.88;11.48;;;10.90;97.70;;;;;;5031749;28;20226;-85
2022/09/30 07:28:32;;;;;;;12.77;11.15;;;11.00;97.10;;;;;;5033871;28;20282;-85
2022/09/30 07:31:02;;;;;;;14.02;10.50;;;11.10;96.70;;;;;;5035778;28;20197;-86
2022/09/30 07:33:31;;;;;;;12.43;10.63;;;11.10;96.80;;;;;;5042825;28;20199;-85
2022/09/30 07:36:00;;;;;;;12.77;9.75;;;11.20;96.00;;;;;;5043494;28;20217;-85
2022/09/30 07:38:30;;;;;;;12.02;10.02;;;11.20;96.00;;;;;;5043578;28;20199;-85
2022/09/30 07:41:00;;;;;;;9.73;8.70;;;11.10;96.00;;;;;;5044949;28;20205;-85
2022/09/30 07:43:33;;;;;;;10.02;8.95;;;11.20;96.00;;;;;;5043791;28;20301;-85
2022/09/30 07:46:04;;;;;;;10.48;9.38;;;11.10;95.40;;;;;;5030775;28;20223;-85
2022/09/30 07:48:43;;;;;;;9.35;8.35;;;11.20;96.00;;;;;;5037567;28;20275;-85
2022/09/30 07:51:14;;;;;;;9.23;7.95;;;11.40;95.40;;;;;;5042575;28;20202;-85
2022/09/30 07:53:42;;;;;;;8.82;7.20;;;11.60;94.80;;;;;;5041139;28;20213;-85
2022/09/30 07:56:12;;;;;;;6.07;5.47;;;11.50;93.80;;;;;;5038595;28;20217;-85
2022/09/30 07:58:39;;;;;;;7.30;6.30;;;11.70;93.40;;;;;;5042911;28;20293;-87
2022/09/30 08:01:07;;;;;;;9.32;6.00;;;11.70;94.10;;;;;;5035122;28;20285;-85
2022/09/30 08:03:38;;;;;;;6.60;5.90;;;11.70;93.80;;;;;;5042927;28;20254;-85
2022/09/30 08:06:07;;;;;;;6.55;5.85;;;11.90;93.40;;;;;;5038304;28;20227;-86
2022/09/30 08:08:35;;;;;;;6.90;5.47;;;12.10;93.30;;;;;;5033804;28;20223;-85
2022/09/30 08:11:03;;;;;;;6.53;5.88;;;12.20;93.10;;;;;;5037671;28;20202;-86
2022/09/30 08:13:30;;;;;;;6.00;4.68;;;12.30;94.50;;;;;;5037341;28;20204;-86
2022/09/30 08:15:57;;;;;;;4.05;3.63;;;12.20;94.00;;;;;;5032742;28;20202;-88
2022/09/30 08:18:24;;;;;;;2.90;2.45;;;12.30;93.60;;;;;;5033641;28;20642;-87
2022/09/30 08:20:51;;;;;;;3.50;2.60;;;12.50;92.00;;;;;;5033234;28;20603;-88
2022/09/30 08:23:18;;;;;;;5.68;2.80;;;12.80;91.80;;;;;;5032353;28;20205;-88
2022/09/30 08:25:46;;;;;;;3.20;2.42;;;13.00;89.20;;;;;;5029503;28;20745;-87
2022/09/30 08:28:14;;;;;;;2.47;2.17;;;13.30;87.40;;;;;;5034114;28;20286;-88
2022/09/30 08:30:42;;;;;;;1.50;1.40;;;13.50;83.10;;;;;;5032656;28;20209;-87
2022/09/30 08:33:08;;;;;;;1.42;1.33;;;13.60;73.40;;;;;;5034021;28;20669;-87
2022/09/30 08:35:36;;;;;;;0.80;0.75;;;13.70;73.70;;;;;;5029404;28;20670;-87
2022/09/30 08:38:03;;;;;;;1.08;0.98;;;14.10;59.40;;;;;;5032411;28;20249;-88
2022/09/30 08:40:33;;;;;;;1.10;1.00;;;14.00;61.30;;;;;;5029166;28;20213;-88
2022/09/30 08:43:16;;;;;;;1.58;1.48;;;13.80;74.10;;;;;;5025710;28;20692;-88
2022/09/30 08:45:51;;;;;;;2.10;1.80;;;13.60;78.60;;;;;;5029594;28;20226;-88
2022/09/30 08:48:29;;;;;;;2.22;2.03;;;13.50;79.30;;;;;;5027319;28;20203;-88
2022/09/30 08:51:03;;;;;;;2.63;2.33;;;13.40;77.90;;;;;;5030205;28;20584;-88
2022/09/30 08:53:36;;;;;;;2.42;2.22;;;13.00;80.20;;;;;;5028399;28;20205;-89
2022/09/30 08:56:04;;;;;;;2.30;2.10;;;12.80;83.00;;;;;;5028441;28;20206;-88
2022/09/30 08:58:35;;;;;;;2.28;2.08;;;12.80;82.70;;;;;;5024231;28;20656;-88
2022/09/30 09:01:10;;;;;;;2.40;2.20;;;12.80;82.50;;;;;;5027079;28;20205;-87
2022/09/30 09:03:39;;;;;;;2.00;1.90;;;12.90;86.40;;;;;;5020226;28;20454;-88
2022/09/30 09:06:20;;;;;;;4.45;2.10;;;13.10;84.30;;;;;;5022209;28;20281;-89
2022/09/30 09:09:11;;;;;;;2.20;2.00;;;13.00;86.80;;;;;;5023733;28;20202;-89
2022/09/30 09:11:53;;;;;;;1.65;1.55;;;12.80;86.90;;;;;;5028090;28;20313;-88
2022/09/30 09:14:31;;;;;;;1.40;1.20;;;12.60;86.70;;;;;;5031393;28;20205;-88
2022/09/30 09:17:11;;;;;;;1.33;1.20;;;12.70;84.10;;;;;;5030744;28;20679;-89
2022/09/30 09:19:42;;;;;;;1.38;1.27;;;12.60;84.70;;;;;;5027092;28;20219;-88
2022/09/30 09:22:10;;;;;;;1.83;1.25;;;12.70;84.30;;;;;;5029950;28;20199;-88
2022/09/30 09:24:40;;;;;;;2.38;1.63;;;12.90;83.80;;;;;;5026135;28;20200;-88
2022/09/30 09:27:19;;;;;;;1.90;1.30;;;13.10;82.20;;;;;;5030101;28;20226;-89
2022/09/30 09:29:55;;;;;;;1.33;1.20;;;13.40;84.20;;;;;;5027648;28;20297;-88
2022/09/30 09:32:26;;;;;;;1.48;1.38;;;13.50;81.60;;;;;;5029838;28;20202;-88
2022/09/30 09:34:57;;;;;;;1.40;1.30;;;13.40;78.10;;;;;;5022281;28;20206;-88
2022/09/30 09:40:18;;;;;;;3.92;1.30;;;13.20;79.80;;;;;;5023106;28;20199;-90
2022/09/30 09:43:01;;;;;;;1.90;1.50;;;13.10;88.70;;;;;;5031510;28;20210;-88
2022/09/30 09:45:36;;;;;;;1.90;1.65;;;13.10;82.90;;;;;;5041505;28;20232;-88
2022/09/30 09:48:08;;;;;;;3.10;1.50;;;12.80;86.70;;;;;;5035009;28;20213;-89
2022/09/30 09:50:42;;;;;;;2.13;1.70;;;12.90;83.30;;;;;;5026009;28;20222;-87
2022/09/30 09:53:25;;;;;;;2.88;1.50;;;13.10;80.90;;;;;;5029945;28;20649;-87
2022/09/30 09:55:58;;;;;;;2.15;1.92;;;13.00;83.60;;;;;;5022172;28;20195;-87
2022/09/30 09:58:25;;;;;;;1.77;1.55;;;13.20;80.20;;;;;;5025972;28;20573;-87
2022/09/30 10:01:24;;;;;;;1.73;1.60;;;13.50;79.40;;;;;;5025599;28;20206;-87
2022/09/30 10:04:09;;;;;;;1.98;1.80;;;13.80;76.40;;;;;;5033172;28;20562;-88
2022/09/30 10:06:45;;;;;;;3.17;1.65;;;13.90;78.00;;;;;;5029198;28;20227;-88
2022/09/30 10:09:24;;;;;;;1.70;1.60;;;14.20;76.70;;;;;;5028806;28;20673;-89
2022/09/30 10:11:51;;;;;;;2.03;1.83;;;14.40;70.60;;;;;;5026272;28;20210;-89
2022/09/30 10:14:21;;;;;;;1.90;1.60;;;14.40;71.90;;;;;;5023929;28;20213;-90
2022/09/30 10:16:50;;;;;;;1.80;1.70;;;14.30;70.40;;;;;;5032558;28;20629;-89
2022/09/30 10:19:22;;;;;;;1.70;1.52;;;13.90;73.90;;;;;;5034053;28;20203;-89
2022/09/30 10:21:49;;;;;;;1.77;1.58;;;14.20;75.10;;;;;;5025197;28;20321;-89
2022/09/30 10:24:26;;;;;;;1.48;1.38;;;14.10;77.90;;;;;;5037050;28;20218;-88
2022/09/30 10:26:53;;;;;;;1.60;1.40;;;14.40;76.80;;;;;;5037778;28;20222;-89
2022/09/30 10:29:30;;;;;;;1.65;1.50;;;14.80;77.10;;;;;;5030356;28;20205;-89
2022/09/30 10:31:59;;;;;;;2.47;1.40;;;15.10;77.40;;;;;;5038274;28;20229;-86
2022/09/30 10:34:30;;;;;;;1.85;1.35;;;15.20;72.30;;;;;;5046753;28;20649;-86
2022/09/30 10:37:03;;;;;;;2.55;1.45;;;15.50;71.20;;;;;;5046975;28;20202;-86
2022/09/30 10:39:32;;;;;;;2.75;1.40;;;15.60;59.50;;;;;;5042133;28;20206;-92
2022/09/30 10:42:03;;;;;;;1.70;1.60;;;15.40;54.20;;;;;;5047923;28;20274;-86
2022/09/30 10:44:30;;;;;;;1.50;1.40;;;15.10;60.60;;;;;;5055053;28;20262;-85
2022/09/30 10:47:10;;;;;;;1.80;1.58;;;14.80;63.70;;;;;;5049115;28;20305;-86
2022/09/30 10:49:43;;;;;;;2.42;1.60;;;14.50;66.30;;;;;;5052229;28;20275;-88
2022/09/30 10:52:18;;;;;;;1.63;1.38;;;14.40;69.40;;;;;;5029204;28;20526;-88
2022/09/30 10:54:49;;;;;;;2.30;1.50;;;14.20;75.40;;;;;;5035923;28;20208;-88
2022/09/30 10:57:21;;;;;;;3.40;1.98;;;14.00;74.10;;;;;;5033227;28;20572;-88
2022/09/30 10:59:59;;;;;;;2.15;1.33;;;13.80;78.10;;;;;;5035662;28;20229;-90
2022/09/30 11:02:50;;;;;;;1.50;1.40;;;13.60;77.10;;;;;;5028490;28;20206;-88
2022/09/30 11:05:32;;;;;;;1.58;1.40;;;13.60;75.10;;;;;;5034054;28;20218;-88
2022/09/30 11:08:03;;;;;;;2.83;1.40;;;13.50;76.20;;;;;;5033575;28;20585;-88
2022/09/30 11:10:45;;;;;;;2.53;1.75;;;13.50;79.20;;;;;;5031834;28;20201;-88
2022/09/30 11:13:20;;;;;;;1.63;1.20;;;13.70;80.60;;;;;;5035811;28;20285;-88
2022/09/30 11:16:09;;;;;;;2.05;1.80;;;13.70;82.60;;;;;;5032999;28;20206;-88
2022/09/30 11:18:45;;;;;;;1.83;1.60;;;13.40;85.90;;;;;;5033330;28;20268;-89
2022/09/30 11:21:18;;;;;;;1.30;1.20;;;13.60;82.20;;;;;;5035963;28;20194;-88
2022/09/30 11:24:26;;;;;;;1.70;1.50;;;13.40;77.50;;;;;;5037631;28;20198;-87
2022/09/30 11:27:04;;;;;;;2.28;1.52;;;13.50;81.50;;;;;;5028844;28;20275;-87
2022/09/30 11:30:10;;;;;;;2.20;1.55;;;13.40;80.30;;;;;;5035787;28;20229;-87
2022/09/30 11:32:56;;;;;;;2.85;1.35;;;13.40;79.50;;;;;;5039791;28;20242;-87
2022/09/30 11:35:53;;;;;;;2.88;1.77;;;13.30;82.40;;;;;;5024743;28;20221;-87
2022/09/30 11:38:40;;;;;;;3.17;1.83;;;13.10;83.70;;;;;;5022051;28;20212;-86
2022/09/30 11:41:21;;;;;;;4.10;1.60;;;13.10;88.60;;;;;;5022994;28;20203;-87
2022/09/30 11:44:20;;;;;;;1.92;1.40;;;13.10;89.80;;;;;;5028899;28;20285;-87
2022/09/30 11:47:16;;;;;;;3.08;1.50;;;13.30;87.70;;;;;;5032646;28;20227;-87
2022/09/30 11:50:04;;;;;;;1.60;1.23;;;13.30;83.70;;;;;;5044421;28;20726;-87
2022/09/30 11:52:44;;;;;;;1.30;1.20;;;13.50;82.10;;;;;;5037545;28;20610;-86
2022/09/30 11:55:44;;;;;;;2.67;1.42;;;13.70;79.80;;;;;;5020053;28;20253;-88
2022/09/30 11:58:37;;;;;;;1.40;1.30;;;14.10;81.40;;;;;;4941174;28;20202;-87
2022/09/30 12:01:14;;;;;;;3.90;1.90;;;14.60;77.00;;;;;;4946730;28;20197;-87
2022/09/30 12:03:56;;;;;;;1.88;1.77;;;14.70;74.10;;;;;;4955489;28;20205;-87
2022/09/30 12:06:34;;;;;;;1.45;1.35;;;14.60;77.00;;;;;;4948866;28;20217;-87
2022/09/30 12:09:20;;;;;;;1.40;1.30;;;14.70;66.90;;;;;;4948002;28;20216;-86
2022/09/30 12:11:54;;;;;;;2.08;1.35;;;14.50;66.30;;;;;;4944395;28;20230;-86
2022/09/30 12:14:50;;;;;;;1.67;1.50;;;14.30;74.30;;;;;;4948083;28;20301;-86
2022/09/30 12:17:49;;;;;;;3.42;1.92;;;14.40;76.80;;;;;;4950639;28;20283;-86
2022/09/30 12:20:25;;;;;;;3.05;2.10;;;14.60;74.80;;;;;;4953566;28;20213;-86
2022/09/30 12:23:00;;;;;;;2.85;2.03;;;14.50;75.30;;;;;;4955347;28;20307;-87
2022/09/30 12:25:32;;;;;;;3.20;2.42;;;14.40;76.80;;;;;;4954024;28;20206;-88
2022/09/30 12:31:37;;;;;;;1.75;1.38;;;14.10;80.10;;;;;;4955034;28;20312;-88
2022/09/30 12:34:30;;;;;;;1.52;1.30;;;14.00;82.30;;;;;;4994254;28;20661;-88
2022/09/30 12:37:28;;;;;;;1.95;1.50;;;14.00;76.60;;;;;;5031076;28;20281;-87
2022/09/30 12:40:28;;;;;;;1.75;1.48;;;14.00;78.50;;;;;;5035058;28;20203;-87
2022/09/30 12:43:37;;;;;;;1.73;1.60;;;14.10;75.00;;;;;;5019114;28;20199;-87
2022/09/30 12:46:20;;;;;;;2.35;1.40;;;14.10;76.20;;;;;;5022397;28;20195;-86
2022/09/30 12:48:52;;;;;;;1.50;1.40;;;14.10;76.60;;;;;;5036896;28;20252;-86
2022/09/30 12:51:32;;;;;;;6.28;1.90;;;14.30;74.40;;;;;;5031983;28;20705;-85
2022/09/30 12:54:21;;;;;;;2.05;1.30;;;14.40;70.60;;;;;;5030461;28;20200;-86
2022/09/30 12:56:58;;;;;;;1.27;1.17;;;14.60;74.10;;;;;;5031948;28;20223;-86
2022/09/30 12:59:34;;;;;;;1.20;1.10;;;14.80;68.80;;;;;;5034803;28;20569;-86
2022/09/30 13:02:03;;;;;;;2.90;1.45;;;14.80;60.30;;;;;;5032532;28;20197;-86
2022/09/30 13:04:38;;;;;;;1.50;1.40;;;14.90;63.90;;;;;;5036161;28;20214;-86
2022/09/30 13:07:17;;;;;;;3.38;1.30;;;15.00;62.50;;;;;;5029044;28;20221;-85
2022/09/30 13:10:26;;;;;;;1.13;1.10;;;15.20;63.80;;;;;;5033300;28;20218;-87
2022/09/30 13:13:20;;;;;;;1.10;1.10;;;15.40;57.20;;;;;;5029966;28;20522;-87
2022/09/30 13:16:01;;;;;;;1.92;1.27;;;15.40;54.00;;;;;;5031175;28;20549;-86
2022/09/30 13:19:00;;;;;;;2.90;1.58;;;15.20;56.50;;;;;;5031169;28;20563;-87
2022/09/30 13:21:42;;;;;;;1.58;1.38;;;15.00;57.60;;;;;;5032822;28;20205;-87
2022/09/30 13:24:18;;;;;;;1.40;1.30;;;14.90;56.50;;;;;;5032369;28;20199;-87
2022/09/30 13:27:08;;;;;;;1.40;1.30;;;15.00;55.90;;;;;;5015347;28;20210;-87
2022/09/30 13:29:48;;;;;;;2.80;1.40;;;14.70;58.20;;;;;;5026047;28;20205;-88
2022/09/30 13:32:33;;;;;;;1.42;1.30;;;14.80;65.50;;;;;;5032804;28;20201;-87
2022/09/30 13:35:00;;;;;;;1.33;1.20;;;15.00;66.30;;;;;;5028465;28;20204;-87